Basin City, Washington
Current Conditions -  °F | °C
As of 9:53 PM on Friday 28 Nov 2014 (Local Time) from KPSC Reporting Station
Clear Clear  
Wind Chill: 54°   Ceiling: Unl
Heat Index: 54°   Visibility: 10mi
Dew Point: 45°   Wind: 23mph
Humidity: 72%   Direction: 250°WSW
Pressure: 29.36"   Gusts: 32mph
Location:  46.5851°N, 119.156°W
Report Text: KPSC 290553Z 25020G28KT 10SM CLR 12/07 A2936 RMK AO2 PK WND 25028/0546 SLP940 P0001 60003 T01220072 10156 20122 51016 $
Loading
Personal Weather Stations






























Interactive Weather Map New forecast layout! Learn more

10-Day Weather Forecast

Advertisements
Track Severe Weather on mobile